Time;durP1;ratioP1;P1;durP2;ratioP2;P2;SDS_P1;SDS_P2;PMS_P1;PMS_P2;Temp;Humidity;BMP_temperature;BMP_pressure;BME280_temperature;BME280_humidity;BME280_pressure;Samples;Min_cycle;Max_cycle;Signal;HPM_P1;HPM_P2
2023/07/19 00:00:11;;;;;;;6.20;4.43;;;;;;;;;;5036923;28;20677;-65
2023/07/19 00:02:38;;;;;;;6.73;4.63;;;;;;;;;;5036818;28;20195;-65
2023/07/19 00:05:04;;;;;;;9.00;4.63;;;;;;;;;;5019208;28;20656;-65
2023/07/19 00:07:30;;;;;;;6.83;4.53;;;;;;;;;;5037222;28;20233;-66
2023/07/19 00:09:56;;;;;;;7.73;4.57;;;;;;;;;;5036799;28;20722;-65
2023/07/19 00:12:22;;;;;;;7.60;4.90;;;;;;;;;;5036733;28;20667;-65
2023/07/19 00:14:48;;;;;;;8.20;4.77;;;;;;;;;;5037178;28;20656;-65
2023/07/19 00:17:14;;;;;;;6.20;4.00;;;;;;;;;;5036543;28;20265;-65
2023/07/19 00:19:39;;;;;;;5.83;4.00;;;;;;;;;;5036600;28;20202;-65
2023/07/19 00:22:06;;;;;;;6.50;3.77;;;;;;;;;;5018872;28;20186;-65
2023/07/19 00:24:32;;;;;;;6.87;3.83;;;;;;;;;;5036770;28;20183;-65
2023/07/19 00:26:57;;;;;;;6.27;4.10;;;;;;;;;;5036514;28;20599;-65
2023/07/19 00:29:23;;;;;;;5.73;3.87;;;;;;;;;;5036841;28;20565;-65
2023/07/19 00:31:49;;;;;;;6.50;3.87;;;;;;;;;;5036723;28;20171;-65
2023/07/19 00:34:15;;;;;;;4.30;3.60;;;;;;;;;;5018591;28;20179;-65
2023/07/19 00:36:41;;;;;;;7.20;3.70;;;;;;;;;;5036151;28;20202;-66
2023/07/19 00:39:07;;;;;;;6.53;4.20;;;;;;;;;;5038023;28;20179;-64
2023/07/19 00:41:33;;;;;;;5.37;4.07;;;;;;;;;;5036917;28;20179;-62
2023/07/19 00:43:59;;;;;;;9.23;3.90;;;;;;;;;;5036499;28;20178;-63
2023/07/19 00:46:26;;;;;;;6.80;4.10;;;;;;;;;;5036666;28;20689;-63
2023/07/19 00:48:52;;;;;;;6.03;3.63;;;;;;;;;;5036376;28;20179;-63
2023/07/19 00:51:18;;;;;;;8.43;4.30;;;;;;;;;;5036465;28;20180;-62
2023/07/19 00:53:45;;;;;;;6.27;4.00;;;;;;;;;;5036495;28;20183;-65
2023/07/19 00:56:12;;;;;;;4.80;3.53;;;;;;;;;;5036857;28;20256;-63
2023/07/19 00:58:39;;;;;;;5.77;3.67;;;;;;;;;;5036492;28;20182;-63
2023/07/19 01:01:05;;;;;;;6.47;3.77;;;;;;;;;;5021358;28;20203;-63
2023/07/19 01:03:31;;;;;;;8.17;4.33;;;;;;;;;;5040295;28;20266;-63
2023/07/19 01:05:58;;;;;;;5.90;3.80;;;;;;;;;;5036428;28;20187;-63
2023/07/19 01:08:25;;;;;;;6.00;3.97;;;;;;;;;;5036381;28;20245;-63
2023/07/19 01:10:51;;;;;;;6.60;3.87;;;;;;;;;;5018573;28;20210;-63
2023/07/19 01:13:17;;;;;;;6.70;3.97;;;;;;;;;;5042097;28;20251;-63
2023/07/19 01:15:44;;;;;;;11.33;4.13;;;;;;;;;;5042118;28;20754;-63
2023/07/19 01:18:09;;;;;;;6.63;4.03;;;;;;;;;;5025097;28;20559;-63
2023/07/19 01:20:36;;;;;;;8.33;4.27;;;;;;;;;;5039710;28;20194;-64
2023/07/19 01:23:02;;;;;;;5.13;3.93;;;;;;;;;;5022028;28;20234;-63
2023/07/19 01:25:28;;;;;;;6.40;4.00;;;;;;;;;;5038110;28;20641;-63
2023/07/19 01:27:54;;;;;;;7.23;4.53;;;;;;;;;;5017897;28;20186;-63
2023/07/19 01:30:20;;;;;;;9.27;3.80;;;;;;;;;;5035673;28;20198;-63
2023/07/19 01:32:46;;;;;;;6.13;4.30;;;;;;;;;;5035662;28;20657;-63
2023/07/19 01:35:12;;;;;;;7.00;4.30;;;;;;;;;;5035809;28;20175;-63
2023/07/19 01:37:39;;;;;;;5.87;3.90;;;;;;;;;;5018571;28;20207;-63
2023/07/19 01:40:05;;;;;;;5.40;3.93;;;;;;;;;;5018484;28;20199;-65
2023/07/19 01:42:31;;;;;;;7.37;4.47;;;;;;;;;;5035125;28;20179;-64
2023/07/19 01:44:59;;;;;;;6.97;4.10;;;;;;;;;;5035042;28;20175;-64
2023/07/19 01:47:25;;;;;;;9.33;4.53;;;;;;;;;;5035513;28;20179;-64
2023/07/19 01:49:51;;;;;;;5.77;4.17;;;;;;;;;;5034993;28;20209;-65
2023/07/19 01:52:17;;;;;;;8.40;4.10;;;;;;;;;;5034877;28;20218;-64
2023/07/19 01:54:43;;;;;;;7.23;4.37;;;;;;;;;;5017069;28;20194;-64
2023/07/19 01:57:09;;;;;;;7.43;4.87;;;;;;;;;;5017166;28;20207;-64
2023/07/19 01:59:35;;;;;;;8.10;4.77;;;;;;;;;;5035065;28;20195;-64
2023/07/19 02:02:01;;;;;;;8.53;4.50;;;;;;;;;;5034524;28;20217;-64
2023/07/19 02:04:27;;;;;;;8.20;5.40;;;;;;;;;;5034637;28;20203;-65
2023/07/19 02:06:53;;;;;;;13.67;5.37;;;;;;;;;;5034552;28;20175;-64
2023/07/19 02:09:19;;;;;;;10.53;5.90;;;;;;;;;;5033591;28;20203;-64
2023/07/19 02:11:45;;;;;;;10.23;5.20;;;;;;;;;;5034508;28;20175;-64
2023/07/19 02:14:11;;;;;;;8.10;4.90;;;;;;;;;;5034590;28;20237;-64
2023/07/19 02:16:38;;;;;;;11.03;5.47;;;;;;;;;;5034289;28;20256;-65
2023/07/19 02:19:04;;;;;;;9.80;5.77;;;;;;;;;;5034406;28;20214;-64
2023/07/19 02:21:30;;;;;;;10.30;5.50;;;;;;;;;;5034251;28;20218;-64
2023/07/19 02:23:57;;;;;;;11.03;5.57;;;;;;;;;;5034229;28;20209;-64
2023/07/19 02:26:23;;;;;;;13.90;4.93;;;;;;;;;;5034347;28;20175;-64
2023/07/19 02:28:49;;;;;;;10.20;4.90;;;;;;;;;;5034382;28;20179;-64
2023/07/19 02:31:15;;;;;;;6.37;4.40;;;;;;;;;;5034020;28;20195;-65
2023/07/19 02:33:41;;;;;;;7.17;4.10;;;;;;;;;;5034013;28;20213;-65
2023/07/19 02:36:07;;;;;;;7.37;4.53;;;;;;;;;;5034133;28;20235;-64
2023/07/19 02:38:33;;;;;;;7.03;3.97;;;;;;;;;;5033958;28;20272;-63
2023/07/19 02:41:00;;;;;;;4.97;3.90;;;;;;;;;;5033770;28;20680;-64
2023/07/19 02:43:26;;;;;;;5.43;4.47;;;;;;;;;;5034132;28;20262;-64
2023/07/19 02:45:53;;;;;;;5.67;4.17;;;;;;;;;;5033811;28;20179;-64
2023/07/19 02:48:19;;;;;;;5.77;4.23;;;;;;;;;;5033948;28;20186;-64
2023/07/19 02:50:48;;;;;;;4.97;4.07;;;;;;;;;;5016132;28;20203;-64
2023/07/19 02:53:14;;;;;;;7.80;4.33;;;;;;;;;;5033617;28;20187;-64
2023/07/19 02:55:43;;;;;;;6.30;4.50;;;;;;;;;;5033447;28;20736;-65
2023/07/19 02:58:09;;;;;;;4.57;4.07;;;;;;;;;;5033956;28;20182;-64
2023/07/19 03:00:35;;;;;;;5.07;4.53;;;;;;;;;;5033499;28;20195;-64
2023/07/19 03:03:00;;;;;;;9.37;5.00;;;;;;;;;;5015590;28;20290;-64
2023/07/19 03:05:26;;;;;;;6.13;3.90;;;;;;;;;;5033585;28;20186;-65
2023/07/19 03:07:52;;;;;;;5.43;3.90;;;;;;;;;;5015809;28;20262;-64
2023/07/19 03:10:18;;;;;;;7.27;4.30;;;;;;;;;;5033599;28;20572;-64
2023/07/19 03:12:44;;;;;;;5.03;4.33;;;;;;;;;;5033693;28;20183;-65
2023/07/19 03:15:10;;;;;;;5.83;3.97;;;;;;;;;;5033643;28;20179;-64
2023/07/19 03:17:36;;;;;;;5.17;4.10;;;;;;;;;;5033357;28;20612;-64
2023/07/19 03:20:03;;;;;;;7.00;4.53;;;;;;;;;;5033158;28;20274;-64
2023/07/19 03:22:28;;;;;;;6.67;4.37;;;;;;;;;;5033485;28;20194;-64
2023/07/19 03:24:54;;;;;;;10.37;4.67;;;;;;;;;;5033762;28;20648;-64
2023/07/19 03:27:20;;;;;;;9.23;4.60;;;;;;;;;;5033335;28;20707;-64
2023/07/19 03:29:46;;;;;;;6.93;4.60;;;;;;;;;;5033372;28;20737;-64
2023/07/19 03:32:12;;;;;;;9.93;4.87;;;;;;;;;;5033322;28;20183;-64
2023/07/19 03:34:38;;;;;;;7.93;5.23;;;;;;;;;;5033062;28;20210;-65
2023/07/19 03:37:04;;;;;;;6.70;4.60;;;;;;;;;;5033042;28;20207;-65
2023/07/19 03:39:30;;;;;;;7.33;5.37;;;;;;;;;;5033157;28;20287;-64
2023/07/19 03:41:57;;;;;;;11.20;4.60;;;;;;;;;;5033147;28;20240;-64
2023/07/19 03:44:23;;;;;;;6.93;4.00;;;;;;;;;;5033315;28;20640;-63
2023/07/19 03:46:49;;;;;;;7.47;4.70;;;;;;;;;;5033390;28;20257;-66
2023/07/19 03:49:15;;;;;;;8.30;4.77;;;;;;;;;;5033480;28;20664;-65
2023/07/19 03:51:42;;;;;;;6.33;4.10;;;;;;;;;;5015413;28;20557;-65
2023/07/19 03:54:08;;;;;;;8.40;4.57;;;;;;;;;;5033059;28;20179;-65
2023/07/19 03:56:35;;;;;;;10.07;5.07;;;;;;;;;;5015193;28;20589;-65
2023/07/19 03:59:01;;;;;;;5.93;4.80;;;;;;;;;;5033225;28;20175;-65
2023/07/19 04:01:27;;;;;;;7.53;5.07;;;;;;;;;;5033343;28;20178;-65
2023/07/19 04:03:52;;;;;;;9.80;5.50;;;;;;;;;;5032922;28;20175;-65
2023/07/19 04:06:18;;;;;;;11.80;4.83;;;;;;;;;;5032932;28;20175;-65
2023/07/19 04:08:44;;;;;;;6.07;4.30;;;;;;;;;;5033269;28;20262;-65
2023/07/19 04:11:10;;;;;;;8.13;4.23;;;;;;;;;;5032867;28;20203;-65
2023/07/19 04:13:36;;;;;;;6.97;4.60;;;;;;;;;;5033124;28;20179;-64
2023/07/19 04:16:02;;;;;;;7.00;4.77;;;;;;;;;;5033418;28;20739;-64
2023/07/19 04:18:28;;;;;;;6.87;4.53;;;;;;;;;;5032987;28;20225;-65
2023/07/19 04:20:57;;;;;;;8.80;5.37;;;;;;;;;;5032798;28;20199;-65
2023/07/19 04:23:23;;;;;;;7.27;4.80;;;;;;;;;;5032821;28;20241;-65
2023/07/19 04:25:50;;;;;;;6.93;4.30;;;;;;;;;;5015501;28;20294;-65
2023/07/19 04:28:17;;;;;;;6.97;4.47;;;;;;;;;;5032843;28;20637;-65
2023/07/19 04:30:44;;;;;;;8.03;3.90;;;;;;;;;;5032748;28;20202;-65
2023/07/19 04:33:10;;;;;;;12.03;5.30;;;;;;;;;;5034298;28;20614;-65
2023/07/19 04:35:36;;;;;;;5.93;4.17;;;;;;;;;;5036608;28;20210;-65
2023/07/19 04:38:03;;;;;;;7.87;4.57;;;;;;;;;;5036647;28;20217;-65
2023/07/19 04:40:29;;;;;;;8.00;4.73;;;;;;;;;;5036290;28;20194;-66
2023/07/19 04:42:55;;;;;;;6.10;5.10;;;;;;;;;;5036096;28;20201;-65
2023/07/19 04:45:21;;;;;;;7.30;4.90;;;;;;;;;;5036664;28;20625;-64
2023/07/19 04:47:47;;;;;;;6.20;4.63;;;;;;;;;;5036274;28;20244;-65
2023/07/19 04:50:13;;;;;;;6.07;4.50;;;;;;;;;;5018203;28;20198;-65
2023/07/19 04:52:39;;;;;;;9.17;4.73;;;;;;;;;;5036435;28;20651;-65
2023/07/19 04:55:06;;;;;;;8.70;5.27;;;;;;;;;;5035942;28;20253;-66
2023/07/19 04:57:32;;;;;;;5.83;5.17;;;;;;;;;;5035866;28;20207;-65
2023/07/19 04:59:58;;;;;;;9.00;5.43;;;;;;;;;;5036273;28;20309;-65
2023/07/19 05:02:24;;;;;;;8.87;5.30;;;;;;;;;;5018094;28;20202;-65
2023/07/19 05:04:50;;;;;;;12.17;5.40;;;;;;;;;;5036066;28;20182;-65
2023/07/19 05:07:16;;;;;;;12.93;5.30;;;;;;;;;;5017999;28;20210;-65
2023/07/19 05:09:43;;;;;;;8.60;5.30;;;;;;;;;;5032710;23;20234;-68
2023/07/19 05:12:09;;;;;;;12.27;6.30;;;;;;;;;;5036657;28;20246;-68
2023/07/19 05:14:35;;;;;;;14.37;5.93;;;;;;;;;;5036740;28;20226;-68
2023/07/19 05:17:01;;;;;;;9.73;6.00;;;;;;;;;;5018773;28;20688;-69
2023/07/19 05:19:27;;;;;;;12.03;6.20;;;;;;;;;;5018492;28;20210;-68
2023/07/19 05:21:53;;;;;;;11.33;6.40;;;;;;;;;;5035902;28;20179;-68
2023/07/19 05:24:19;;;;;;;14.03;6.07;;;;;;;;;;5035624;28;20228;-67
2023/07/19 05:26:46;;;;;;;10.70;5.93;;;;;;;;;;5035708;28;20214;-68
2023/07/19 05:29:12;;;;;;;11.00;6.23;;;;;;;;;;5035918;28;20343;-68
2023/07/19 05:31:37;;;;;;;10.87;5.53;;;;;;;;;;5035685;28;20262;-68
2023/07/19 05:34:04;;;;;;;7.37;5.43;;;;;;;;;;5035236;28;20560;-68
2023/07/19 05:36:30;;;;;;;10.27;4.93;;;;;;;;;;5017504;28;20199;-68
2023/07/19 05:38:56;;;;;;;7.77;5.67;;;;;;;;;;5035316;28;20183;-68
2023/07/19 05:41:22;;;;;;;10.47;5.90;;;;;;;;;;5035191;28;20171;-68
2023/07/19 05:43:48;;;;;;;8.13;5.57;;;;;;;;;;5034280;28;20567;-67
2023/07/19 05:46:14;;;;;;;10.23;6.37;;;;;;;;;;5034544;28;20181;-67
2023/07/19 05:48:40;;;;;;;10.93;5.43;;;;;;;;;;5035031;28;20258;-69
2023/07/19 05:51:06;;;;;;;11.73;6.07;;;;;;;;;;5034785;28;20175;-68
2023/07/19 05:53:33;;;;;;;16.47;6.33;;;;;;;;;;5034886;28;20186;-68
2023/07/19 05:55:59;;;;;;;15.73;7.17;;;;;;;;;;5034826;28;20203;-68
2023/07/19 05:58:27;;;;;;;15.43;6.50;;;;;;;;;;5034774;28;20198;-68
2023/07/19 06:00:53;;;;;;;7.50;5.80;;;;;;;;;;5034622;28;20700;-68
2023/07/19 06:03:19;;;;;;;8.50;5.87;;;;;;;;;;5034489;28;20171;-68
2023/07/19 06:05:45;;;;;;;11.97;6.20;;;;;;;;;;5034788;28;20195;-68
2023/07/19 06:08:12;;;;;;;12.20;6.57;;;;;;;;;;5016722;28;20175;-68
2023/07/19 06:10:38;;;;;;;10.97;6.00;;;;;;;;;;5034205;28;20222;-68
2023/07/19 06:13:04;;;;;;;11.00;6.27;;;;;;;;;;5034349;28;20211;-68
2023/07/19 06:15:33;;;;;;;14.83;6.13;;;;;;;;;;5034888;28;20260;-68
2023/07/19 06:18:00;;;;;;;11.40;5.87;;;;;;;;;;5034278;28;20191;-68
2023/07/19 06:20:26;;;;;;;10.47;5.77;;;;;;;;;;5034223;28;20202;-68
2023/07/19 06:22:52;;;;;;;9.40;6.27;;;;;;;;;;5016498;28;20171;-68
2023/07/19 06:25:18;;;;;;;13.83;6.40;;;;;;;;;;5034260;28;20614;-69
2023/07/19 06:27:44;;;;;;;10.73;6.03;;;;;;;;;;5016523;28;20179;-68
2023/07/19 06:30:11;;;;;;;12.77;5.93;;;;;;;;;;5017249;28;20260;-68
2023/07/19 06:32:37;;;;;;;9.90;6.03;;;;;;;;;;5017425;28;20187;-68
2023/07/19 06:35:08;;;;;;;10.47;6.47;;;;;;;;;;5016781;28;20201;-68
2023/07/19 06:37:35;;;;;;;8.90;6.20;;;;;;;;;;5035179;28;20230;-68
2023/07/19 06:40:03;;;;;;;12.40;6.20;;;;;;;;;;5039820;28;20265;-68
2023/07/19 06:42:30;;;;;;;8.37;6.37;;;;;;;;;;5020616;28;20183;-68
2023/07/19 06:44:56;;;;;;;8.40;6.00;;;;;;;;;;5038492;28;20171;-68
2023/07/19 06:47:22;;;;;;;8.97;5.70;;;;;;;;;;5038635;28;20206;-69
2023/07/19 06:49:48;;;;;;;12.57;5.93;;;;;;;;;;5038293;28;20570;-68
2023/07/19 06:52:14;;;;;;;10.10;6.40;;;;;;;;;;5034708;28;20182;-68
2023/07/19 06:54:40;;;;;;;8.80;6.30;;;;;;;;;;5034755;28;20588;-68
2023/07/19 06:57:06;;;;;;;13.60;6.27;;;;;;;;;;5033164;28;20199;-68
2023/07/19 06:59:32;;;;;;;10.13;6.03;;;;;;;;;;5033391;28;20241;-68
2023/07/19 07:01:58;;;;;;;12.87;6.03;;;;;;;;;;5016133;28;20560;-68
2023/07/19 07:04:24;;;;;;;9.30;6.50;;;;;;;;;;5034087;28;20171;-68
2023/07/19 07:06:50;;;;;;;13.43;6.10;;;;;;;;;;5033500;28;20600;-68
2023/07/19 07:09:16;;;;;;;9.50;6.80;;;;;;;;;;5033564;28;20215;-68
2023/07/19 07:11:42;;;;;;;6.63;5.80;;;;;;;;;;5033563;28;20186;-68
2023/07/19 07:14:08;;;;;;;11.53;6.03;;;;;;;;;;5015687;28;20655;-68
2023/07/19 07:16:34;;;;;;;9.30;6.03;;;;;;;;;;5015503;28;20680;-68
2023/07/19 07:19:00;;;;;;;10.30;6.73;;;;;;;;;;5033460;28;20195;-68
2023/07/19 07:21:26;;;;;;;9.93;6.40;;;;;;;;;;5015379;28;20321;-68
2023/07/19 07:23:52;;;;;;;8.27;5.77;;;;;;;;;;5015486;28;20186;-68
2023/07/19 07:26:18;;;;;;;12.07;5.67;;;;;;;;;;5015332;28;20221;-68
2023/07/19 07:28:44;;;;;;;9.40;5.97;;;;;;;;;;5015652;28;20178;-69
2023/07/19 07:31:11;;;;;;;12.23;6.20;;;;;;;;;;5033153;28;20190;-68
2023/07/19 07:33:37;;;;;;;12.47;5.97;;;;;;;;;;5033439;28;20731;-68
2023/07/19 07:36:03;;;;;;;8.67;5.97;;;;;;;;;;5015372;28;20290;-68
2023/07/19 07:38:29;;;;;;;8.27;5.70;;;;;;;;;;5033574;28;20206;-68
2023/07/19 07:40:59;;;;;;;12.43;6.00;;;;;;;;;;5015294;28;20249;-68
2023/07/19 07:43:25;;;;;;;13.37;6.00;;;;;;;;;;5033035;28;20225;-68
2023/07/19 07:45:55;;;;;;;12.23;6.17;;;;;;;;;;5033051;28;20179;-68
2023/07/19 07:48:21;;;;;;;9.53;6.17;;;;;;;;;;5015352;28;20557;-68
2023/07/19 07:50:49;;;;;;;10.50;6.10;;;;;;;;;;5032927;28;20219;-68
2023/07/19 07:53:15;;;;;;;8.73;5.70;;;;;;;;;;5032915;28;20667;-68
2023/07/19 07:55:41;;;;;;;14.90;5.87;;;;;;;;;;5032618;28;20649;-69
2023/07/19 07:58:07;;;;;;;7.87;5.67;;;;;;;;;;5015063;28;20183;-68
2023/07/19 08:00:33;;;;;;;12.77;6.23;;;;;;;;;;5014961;28;20222;-69
2023/07/19 08:02:59;;;;;;;13.27;5.30;;;;;;;;;;5032683;28;20225;-69
2023/07/19 08:05:27;;;;;;;12.73;5.40;;;;;;;;;;5032885;28;20179;-68
2023/07/19 08:07:52;;;;;;;8.50;5.47;;;;;;;;;;5033748;28;20182;-69
2023/07/19 08:10:18;;;;;;;8.33;4.70;;;;;;;;;;5036343;28;20599;-69
2023/07/19 08:12:44;;;;;;;9.97;4.83;;;;;;;;;;5018755;28;20179;-69
2023/07/19 08:15:10;;;;;;;10.13;4.80;;;;;;;;;;5036410;28;20601;-68
2023/07/19 08:17:37;;;;;;;9.53;4.70;;;;;;;;;;5036450;28;20669;-68
2023/07/19 08:20:05;;;;;;;7.40;4.40;;;;;;;;;;5036253;28;20245;-69
2023/07/19 08:22:33;;;;;;;9.90;4.60;;;;;;;;;;5036300;28;20183;-68
2023/07/19 08:24:59;;;;;;;22.23;13.30;;;;;;;;;;5036211;28;20548;-68
2023/07/19 08:27:26;;;;;;;8.13;4.50;;;;;;;;;;5036263;28;20203;-68
2023/07/19 08:29:52;;;;;;;5.80;4.37;;;;;;;;;;5036141;28;20191;-69
2023/07/19 08:32:18;;;;;;;9.27;4.30;;;;;;;;;;5018241;28;20187;-68
2023/07/19 08:34:45;;;;;;;9.80;4.43;;;;;;;;;;5036243;28;20178;-68
2023/07/19 08:37:11;;;;;;;10.83;4.53;;;;;;;;;;5035864;28;20198;-69
2023/07/19 08:39:37;;;;;;;9.47;5.20;;;;;;;;;;5036271;28;20689;-68
2023/07/19 08:42:03;;;;;;;9.00;4.87;;;;;;;;;;5035893;28;20179;-68
2023/07/19 08:44:29;;;;;;;8.63;4.27;;;;;;;;;;5035900;28;20175;-68
2023/07/19 08:46:55;;;;;;;8.60;4.27;;;;;;;;;;5036113;28;20266;-68
2023/07/19 08:49:21;;;;;;;6.53;3.90;;;;;;;;;;5035749;28;20203;-69
2023/07/19 08:51:48;;;;;;;10.90;4.47;;;;;;;;;;5017973;28;20183;-68
2023/07/19 08:54:14;;;;;;;9.53;4.50;;;;;;;;;;5035884;28;20214;-68
2023/07/19 08:56:43;;;;;;;13.40;4.60;;;;;;;;;;5017759;28;20341;-68
2023/07/19 08:59:10;;;;;;;10.47;4.40;;;;;;;;;;5035761;28;20214;-69
2023/07/19 09:01:36;;;;;;;7.27;3.77;;;;;;;;;;5017761;28;20190;-68
2023/07/19 09:04:08;;;;;;;8.70;3.63;;;;;;;;;;5035657;28;20254;-69
2023/07/19 09:06:34;;;;;;;6.00;3.63;;;;;;;;;;5017718;28;20632;-68
2023/07/19 09:09:01;;;;;;;5.97;3.80;;;;;;;;;;5017476;28;20202;-69
2023/07/19 09:11:27;;;;;;;5.13;3.40;;;;;;;;;;5035464;28;20155;-68
2023/07/19 09:13:54;;;;;;;11.57;3.87;;;;;;;;;;5017736;28;20183;-68
2023/07/19 09:16:26;;;;;;;7.93;3.60;;;;;;;;;;5035170;28;20203;-68
2023/07/19 09:18:54;;;;;;;11.00;4.10;;;;;;;;;;5017072;28;20178;-69
2023/07/19 09:21:39;;;;;;;12.27;3.70;;;;;;;;;;5035198;28;20175;-68
2023/07/19 09:24:06;;;;;;;8.83;4.27;;;;;;;;;;5035705;28;20248;-68
2023/07/19 09:26:48;;;;;;;13.60;3.93;;;;;;;;;;5035495;28;20563;-68
2023/07/19 09:29:14;;;;;;;10.13;4.27;;;;;;;;;;5035368;28;20222;-68
2023/07/19 09:31:57;;;;;;;8.30;3.90;;;;;;;;;;5035356;28;20652;-68
2023/07/19 09:34:25;;;;;;;9.10;4.13;;;;;;;;;;5034980;28;20189;-68
2023/07/19 09:36:52;;;;;;;9.83;4.70;;;;;;;;;;5035097;28;20565;-68
2023/07/19 09:39:18;;;;;;;10.33;4.47;;;;;;;;;;5035150;28;20227;-69
2023/07/19 09:41:47;;;;;;;9.10;4.07;;;;;;;;;;5034960;28;20175;-68
2023/07/19 09:44:15;;;;;;;9.83;4.30;;;;;;;;;;5035019;28;20179;-68
2023/07/19 09:46:43;;;;;;;6.73;4.07;;;;;;;;;;5034759;28;20175;-67
2023/07/19 09:49:09;;;;;;;14.50;4.00;;;;;;;;;;5016919;28;20199;-68
2023/07/19 09:51:35;;;;;;;9.47;4.90;;;;;;;;;;5034612;28;20174;-68
2023/07/19 09:54:04;;;;;;;8.97;4.67;;;;;;;;;;5034517;28;20614;-68
2023/07/19 09:56:30;;;;;;;7.60;3.97;;;;;;;;;;5034583;28;20249;-68
2023/07/19 09:58:57;;;;;;;9.37;4.30;;;;;;;;;;5016728;28;20175;-68
2023/07/19 10:01:23;;;;;;;8.37;4.47;;;;;;;;;;5034894;28;20584;-68
2023/07/19 10:03:50;;;;;;;7.90;4.47;;;;;;;;;;5034397;28;20229;-68
2023/07/19 10:06:16;;;;;;;7.57;4.10;;;;;;;;;;5034396;28;20211;-68
2023/07/19 10:08:42;;;;;;;13.63;3.90;;;;;;;;;;5034199;28;20210;-68
2023/07/19 10:11:20;;;;;;;9.60;4.23;;;;;;;;;;5035024;28;20286;-68
2023/07/19 10:13:59;;;;;;;5.80;3.77;;;;;;;;;;5016485;28;20221;-68
2023/07/19 10:16:33;;;;;;;5.30;3.73;;;;;;;;;;5034694;28;20600;-68
2023/07/19 10:19:12;;;;;;;5.83;3.37;;;;;;;;;;5016594;28;20240;-68
2023/07/19 10:21:38;;;;;;;10.80;3.80;;;;;;;;;;5016293;28;20210;-68
2023/07/19 10:24:08;;;;;;;5.43;3.30;;;;;;;;;;5034050;28;20171;-68
2023/07/19 10:26:37;;;;;;;7.87;3.67;;;;;;;;;;5016216;28;20601;-68
2023/07/19 10:29:06;;;;;;;6.37;3.57;;;;;;;;;;5033967;28;20202;-68
2023/07/19 10:31:32;;;;;;;6.30;3.40;;;;;;;;;;5015597;28;20198;-68
2023/07/19 10:33:58;;;;;;;6.93;3.40;;;;;;;;;;5033863;28;20593;-68
2023/07/19 10:36:24;;;;;;;8.73;3.13;;;;;;;;;;5033751;28;20290;-68
2023/07/19 10:38:50;;;;;;;5.07;3.07;;;;;;;;;;5016003;28;20210;-69
2023/07/19 10:41:19;;;;;;;9.80;3.77;;;;;;;;;;5033714;28;20175;-68
2023/07/19 10:43:45;;;;;;;7.67;2.90;;;;;;;;;;5033688;28;20168;-66
2023/07/19 10:46:12;;;;;;;7.03;3.10;;;;;;;;;;5015829;28;20179;-67
2023/07/19 10:48:38;;;;;;;8.07;3.73;;;;;;;;;;5033820;28;20298;-69
2023/07/19 10:51:05;;;;;;;7.03;3.30;;;;;;;;;;5033591;28;20557;-68
2023/07/19 10:53:57;;;;;;;4.83;2.97;;;;;;;;;;5034242;28;20186;-68
2023/07/19 10:56:24;;;;;;;6.23;3.47;;;;;;;;;;5015987;28;20584;-68
2023/07/19 10:58:49;;;;;;;6.90;3.93;;;;;;;;;;5033949;28;20183;-69
2023/07/19 11:01:16;;;;;;;11.20;4.30;;;;;;;;;;5033281;28;20179;-68
2023/07/19 11:03:45;;;;;;;5.73;3.43;;;;;;;;;;5033840;28;20229;-68
2023/07/19 11:06:11;;;;;;;12.10;4.40;;;;;;;;;;5015706;28;20199;-68
2023/07/19 11:08:37;;;;;;;8.03;3.27;;;;;;;;;;5033377;28;20242;-68
2023/07/19 11:11:03;;;;;;;6.37;3.50;;;;;;;;;;5033096;28;20244;-68
2023/07/19 11:13:30;;;;;;;7.37;3.90;;;;;;;;;;5033449;28;20258;-68
2023/07/19 11:15:57;;;;;;;9.80;4.13;;;;;;;;;;5033034;28;20179;-68
2023/07/19 11:20:53;;;;;;;7.40;3.50;;;;;;;;;;5012828;28;20303;-67
2023/07/19 11:23:19;;;;;;;10.13;3.60;;;;;;;;;;5014419;28;20180;-66
2023/07/19 11:25:46;;;;;;;7.93;4.03;;;;;;;;;;5013751;28;20183;-65
2023/07/19 11:28:13;;;;;;;9.07;3.70;;;;;;;;;;4996228;28;20183;-66
2023/07/19 11:30:39;;;;;;;7.20;3.60;;;;;;;;;;5013825;28;20242;-66
2023/07/19 11:33:06;;;;;;;7.87;3.73;;;;;;;;;;4996135;28;20187;-65
2023/07/19 11:35:32;;;;;;;7.23;3.90;;;;;;;;;;5013857;28;20311;-66
2023/07/19 11:37:58;;;;;;;8.57;3.80;;;;;;;;;;5013564;28;20203;-65
2023/07/19 11:40:24;;;;;;;6.77;4.23;;;;;;;;;;5013637;28;20206;-65
2023/07/19 11:42:54;;;;;;;11.53;4.10;;;;;;;;;;5017224;28;20271;-65
2023/07/19 11:45:21;;;;;;;7.80;4.37;;;;;;;;;;5017807;28;20176;-65
2023/07/19 11:47:51;;;;;;;4.57;3.60;;;;;;;;;;5017691;28;20246;-65
2023/07/19 11:50:18;;;;;;;4.13;3.20;;;;;;;;;;5017804;28;20570;-65
2023/07/19 11:52:48;;;;;;;5.73;3.40;;;;;;;;;;5018587;28;20231;-66
2023/07/19 11:55:18;;;;;;;8.03;3.57;;;;;;;;;;5000121;28;20222;-65
2023/07/19 11:57:44;;;;;;;8.53;3.60;;;;;;;;;;5017320;28;20230;-65
2023/07/19 12:00:11;;;;;;;5.23;3.03;;;;;;;;;;4999895;28;20295;-66
2023/07/19 12:02:38;;;;;;;6.13;3.50;;;;;;;;;;4999981;28;20179;-67
2023/07/19 12:05:05;;;;;;;7.40;3.13;;;;;;;;;;5018187;28;20176;-66
2023/07/19 12:07:31;;;;;;;10.87;3.40;;;;;;;;;;5017954;28;20661;-66
2023/07/19 12:09:58;;;;;;;8.00;3.70;;;;;;;;;;5017740;28;20200;-66
2023/07/19 12:12:24;;;;;;;5.83;3.40;;;;;;;;;;4999925;28;20188;-66
2023/07/19 12:14:50;;;;;;;8.37;3.03;;;;;;;;;;4999863;28;20180;-66
2023/07/19 12:17:15;;;;;;;5.70;2.77;;;;;;;;;;5017238;28;20286;-66
2023/07/19 12:19:41;;;;;;;2.20;1.80;;;;;;;;;;5019394;28;20211;-66
2023/07/19 12:22:07;;;;;;;4.30;2.07;;;;;;;;;;5021723;28;20637;-66
2023/07/19 12:24:33;;;;;;;5.57;2.40;;;;;;;;;;5004582;28;20180;-67
2023/07/19 12:27:00;;;;;;;6.57;2.07;;;;;;;;;;5017500;28;20184;-65
2023/07/19 12:29:26;;;;;;;6.17;2.50;;;;;;;;;;5000176;28;20404;-65
2023/07/19 12:31:52;;;;;;;5.23;2.47;;;;;;;;;;5017332;28;20172;-65
2023/07/19 12:34:20;;;;;;;4.30;2.00;;;;;;;;;;5016926;28;20180;-65
2023/07/19 12:36:47;;;;;;;4.90;2.40;;;;;;;;;;5016699;28;20374;-65
2023/07/19 12:39:13;;;;;;;6.27;2.10;;;;;;;;;;5016511;28;20200;-65
2023/07/19 12:41:39;;;;;;;3.77;2.00;;;;;;;;;;4999036;28;20180;-65
2023/07/19 12:44:06;;;;;;;3.43;2.30;;;;;;;;;;5016808;28;20661;-65
2023/07/19 12:46:32;;;;;;;4.80;2.00;;;;;;;;;;4998954;28;20183;-65
2023/07/19 12:48:58;;;;;;;4.30;2.70;;;;;;;;;;4999113;28;20254;-65
2023/07/19 12:51:24;;;;;;;4.37;2.23;;;;;;;;;;5016386;28;20752;-66
2023/07/19 12:53:50;;;;;;;4.17;2.20;;;;;;;;;;4997984;28;20669;-64
2023/07/19 12:56:16;;;;;;;3.10;1.97;;;;;;;;;;5016273;28;20203;-64
2023/07/19 12:58:42;;;;;;;2.90;2.30;;;;;;;;;;5016236;28;20179;-64
2023/07/19 13:01:08;;;;;;;4.53;2.40;;;;;;;;;;5016333;28;20633;-65
2023/07/19 13:03:34;;;;;;;6.77;2.30;;;;;;;;;;4998684;28;20290;-65
2023/07/19 13:06:00;;;;;;;5.97;2.40;;;;;;;;;;5016307;28;20230;-65
2023/07/19 13:08:27;;;;;;;3.60;2.40;;;;;;;;;;4998766;28;20180;-65
2023/07/19 13:10:53;;;;;;;4.03;2.17;;;;;;;;;;4998701;28;20633;-65
2023/07/19 13:13:19;;;;;;;8.80;2.20;;;;;;;;;;4998644;28;20182;-64
2023/07/19 13:15:45;;;;;;;3.27;2.40;;;;;;;;;;5016515;28;20179;-65
2023/07/19 13:18:11;;;;;;;;;;;;;;;;;;5016405;28;20030;-65
2023/07/19 13:20:36;;;;;;;;;;;;;;;;;;4998533;28;19956;-65
2023/07/19 13:23:02;;;;;;;;;;;;;;;;;;5016219;28;19928;-65
2023/07/19 13:25:28;;;;;;;;;;;;;;;;;;5016441;28;19905;-65
2023/07/19 13:27:54;;;;;;;;;;;;;;;;;;5016166;28;19913;-65
2023/07/19 13:30:20;;;;;;;4.77;2.40;;;;;;;;;;5014589;28;20433;-65
2023/07/19 13:32:46;;;;;;;3.43;2.13;;;;;;;;;;5015569;28;20274;-66
2023/07/19 13:35:12;;;;;;;4.40;2.40;;;;;;;;;;5014700;28;20393;-68
2023/07/19 13:37:38;;;;;;;7.50;2.40;;;;;;;;;;5015588;28;20199;-67
2023/07/19 13:40:07;;;;;;;4.67;2.67;;;;;;;;;;5015369;28;20191;-66
2023/07/19 13:42:37;;;;;;;4.20;2.27;;;;;;;;;;4997805;28;20188;-67
2023/07/19 13:45:03;;;;;;;4.67;2.50;;;;;;;;;;4997938;28;20542;-66
2023/07/19 13:47:29;;;;;;;7.03;2.50;;;;;;;;;;5015343;28;20715;-68
2023/07/19 13:49:55;;;;;;;6.87;2.90;;;;;;;;;;5015173;28;20200;-65
2023/07/19 13:52:21;;;;;;;4.00;2.37;;;;;;;;;;5015530;28;20172;-65
2023/07/19 13:54:48;;;;;;;5.47;2.50;;;;;;;;;;4997763;28;20194;-64
2023/07/19 13:57:14;;;;;;;6.30;2.83;;;;;;;;;;5015347;28;20192;-66
2023/07/19 13:59:40;;;;;;;5.67;3.10;;;;;;;;;;4997689;28;20199;-66
2023/07/19 14:02:06;;;;;;;4.97;2.77;;;;;;;;;;5015056;28;20171;-66
2023/07/19 14:04:32;;;;;;;6.97;3.00;;;;;;;;;;4997021;28;20658;-66
2023/07/19 14:06:58;;;;;;;6.30;2.67;;;;;;;;;;5014446;28;20176;-66
2023/07/19 14:09:24;;;;;;;4.97;2.40;;;;;;;;;;5014916;28;20223;-66
2023/07/19 14:11:50;;;;;;;4.93;2.33;;;;;;;;;;4997093;28;20186;-66
2023/07/19 14:14:16;;;;;;;6.07;2.67;;;;;;;;;;5015371;28;20266;-66
2023/07/19 14:16:42;;;;;;;7.87;2.70;;;;;;;;;;5014723;28;20742;-66
2023/07/19 14:19:08;;;;;;;5.20;2.80;;;;;;;;;;5014721;28;20293;-66
2023/07/19 14:21:34;;;;;;;4.47;2.67;;;;;;;;;;5014695;28;20207;-64
2023/07/19 14:24:00;;;;;;;4.47;2.37;;;;;;;;;;5014870;28;20179;-65
2023/07/19 14:26:26;;;;;;;4.73;2.40;;;;;;;;;;5014965;28;20183;-65
2023/07/19 14:28:52;;;;;;;5.97;2.60;;;;;;;;;;5014430;28;20199;-65
2023/07/19 14:31:19;;;;;;;5.20;2.20;;;;;;;;;;5014862;28;20266;-67
2023/07/19 14:33:45;;;;;;;5.90;2.00;;;;;;;;;;5014521;28;20179;-66
2023/07/19 14:36:11;;;;;;;4.67;2.20;;;;;;;;;;5014306;28;20263;-65
2023/07/19 14:38:37;;;;;;;5.73;2.20;;;;;;;;;;5014285;28;20255;-65